createdAt,value
2022-11-29T00:00:50.913Z,17.3
2022-11-29T00:05:53.331Z,17.2
2022-11-29T00:10:55.499Z,17.2
2022-11-29T00:15:57.642Z,17.2
2022-11-29T00:20:59.806Z,17.2
2022-11-29T00:26:01.920Z,17.2
2022-11-29T00:31:04.120Z,17.1
2022-11-29T00:36:06.219Z,17.1
2022-11-29T00:41:08.306Z,17.1
2022-11-29T00:46:10.606Z,17
2022-11-29T00:51:12.769Z,17
2022-11-29T00:56:14.899Z,17
2022-11-29T01:01:17.131Z,17
2022-11-29T01:06:19.194Z,17
2022-11-29T01:11:21.306Z,17
2022-11-29T01:16:23.600Z,16.9
2022-11-29T01:21:25.811Z,16.9
2022-11-29T01:26:28.099Z,16.9
2022-11-29T01:31:30.252Z,16.9
2022-11-29T01:36:32.453Z,16.9
2022-11-29T01:41:34.569Z,16.8
2022-11-29T01:46:36.903Z,16.8
2022-11-29T01:51:39.342Z,16.8
2022-11-29T01:56:41.651Z,16.8
2022-11-29T02:01:43.821Z,16.8
2022-11-29T02:06:46.126Z,16.7
2022-11-29T02:11:48.253Z,16.7
2022-11-29T02:16:55.111Z,16.7
2022-11-29T02:21:52.533Z,16.7
2022-11-29T02:26:54.641Z,16.6
2022-11-29T02:31:57.958Z,16.6
2022-11-29T02:37:00.287Z,16.6
2022-11-29T02:42:02.496Z,16.6
2022-11-29T02:47:04.634Z,16.6
2022-11-29T02:52:06.808Z,16.5
2022-11-29T02:57:09.127Z,16.5
2022-11-29T03:02:11.319Z,16.5
2022-11-29T03:07:13.439Z,16.5
2022-11-29T03:12:15.599Z,16.5
2022-11-29T03:17:17.863Z,16.5
2022-11-29T03:22:20.049Z,16.5
2022-11-29T03:27:22.368Z,16.4
2022-11-29T03:32:24.739Z,16.4
2022-11-29T03:37:27.047Z,16.4
2022-11-29T03:42:29.156Z,16.3
2022-11-29T03:47:31.381Z,16.3
2022-11-29T03:52:33.560Z,16.3
2022-11-29T03:57:35.894Z,16.3
2022-11-29T04:02:38.081Z,16.2
2022-11-29T04:07:40.379Z,16.2
2022-11-29T04:12:42.546Z,16.2
2022-11-29T04:17:44.805Z,16.2
2022-11-29T04:22:46.978Z,16.2
2022-11-29T04:27:49.081Z,16.2
2022-11-29T04:32:51.215Z,16.1
2022-11-29T04:37:53.644Z,16.1
2022-11-29T04:42:55.905Z,16.1
2022-11-29T04:47:58.133Z,16.1
2022-11-29T04:53:00.321Z,16.1
2022-11-29T04:58:02.438Z,16
2022-11-29T05:03:04.594Z,16
2022-11-29T05:08:06.714Z,16
2022-11-29T05:13:08.825Z,16
2022-11-29T05:18:10.955Z,16
2022-11-29T05:23:13.101Z,16
2022-11-29T05:28:15.453Z,16
2022-11-29T05:33:17.609Z,16
2022-11-29T05:38:19.864Z,16.1
2022-11-29T05:43:22.213Z,16.1
2022-11-29T05:48:24.454Z,16.2
2022-11-29T05:53:26.627Z,16.3
2022-11-29T05:58:30.665Z,16.4
2022-11-29T06:03:31.003Z,16.5
2022-11-29T06:08:33.171Z,16.6
2022-11-29T06:13:35.285Z,16.8
2022-11-29T06:18:37.433Z,16.9
2022-11-29T06:23:39.584Z,17.1
2022-11-29T06:28:41.763Z,17.2
2022-11-29T06:33:43.912Z,17.3
2022-11-29T06:38:46.337Z,17.4
2022-11-29T06:43:48.455Z,17.5
2022-11-29T06:48:50.608Z,17.6
2022-11-29T06:53:52.759Z,17.7
2022-11-29T06:58:54.861Z,17.7
2022-11-29T07:03:57.008Z,17.7
2022-11-29T07:08:59.185Z,17.8
2022-11-29T07:14:01.621Z,17.8
2022-11-29T07:19:03.939Z,17.8
2022-11-29T07:24:06.224Z,17.8
2022-11-29T07:29:08.331Z,17.7
2022-11-29T07:34:10.452Z,17.7
2022-11-29T07:39:12.629Z,17.7
2022-11-29T07:44:14.858Z,17.6
2022-11-29T07:49:17.004Z,17.6
2022-11-29T07:54:19.222Z,17.6
2022-11-29T07:59:21.514Z,17.5
2022-11-29T08:04:23.748Z,17.5
2022-11-29T08:09:25.938Z,17.5
2022-11-29T08:14:28.025Z,17.4
2022-11-29T08:19:30.163Z,17.3
2022-11-29T08:24:32.323Z,17.2
2022-11-29T08:29:34.608Z,17.2
2022-11-29T08:34:36.973Z,17.2
2022-11-29T08:39:39.284Z,17.2
2022-11-29T08:44:41.502Z,17.2
2022-11-29T08:49:43.861Z,17.3
2022-11-29T08:54:46.208Z,17.3
2022-11-29T08:59:48.154Z,17.4
2022-11-29T09:04:50.293Z,17.4
2022-11-29T09:09:52.487Z,17.3
2022-11-29T09:14:54.704Z,17.3
2022-11-29T09:19:56.871Z,17.3
2022-11-29T09:24:59.335Z,17.3
2022-11-29T09:30:01.448Z,17.3
2022-11-29T09:35:03.754Z,17.2
2022-11-29T09:40:05.892Z,17.2
2022-11-29T09:45:08.011Z,17.2
2022-11-29T09:50:10.148Z,17.2
2022-11-29T09:55:12.290Z,17.2
2022-11-29T10:00:14.395Z,17.1
2022-11-29T10:05:16.527Z,17.1
2022-11-29T10:10:18.811Z,17
2022-11-29T10:15:20.936Z,17
2022-11-29T10:20:23.305Z,16.9
2022-11-29T10:25:25.528Z,16.9
2022-11-29T10:30:27.686Z,16.9
2022-11-29T10:35:29.777Z,16.8
2022-11-29T10:40:32.063Z,16.8
2022-11-29T10:45:34.237Z,16.8
2022-11-29T10:50:36.384Z,16.7
2022-11-29T10:55:38.762Z,16.7
2022-11-29T11:00:41.122Z,16.6
2022-11-29T11:05:43.309Z,16.6
2022-11-29T11:10:49.504Z,16.6
2022-11-29T11:15:47.545Z,16.6
2022-11-29T11:20:49.682Z,16.6
2022-11-29T11:25:51.843Z,16.6
2022-11-29T11:30:54.079Z,16.6
2022-11-29T11:35:56.210Z,16.5
2022-11-29T11:40:58.611Z,16.5
2022-11-29T11:46:00.759Z,16.5
2022-11-29T11:51:02.875Z,16.5
2022-11-29T11:56:05.039Z,16.4
2022-11-29T12:01:07.172Z,16.4
2022-11-29T12:06:09.289Z,16.4
2022-11-29T12:11:11.508Z,16.4
2022-11-29T12:16:13.653Z,16.4
2022-11-29T12:21:15.989Z,16.4
2022-11-29T12:26:34.752Z,16.4
2022-11-29T12:31:20.308Z,16.4
2022-11-29T12:36:22.403Z,16.4
2022-11-29T12:41:24.567Z,16.3
2022-11-29T12:46:26.746Z,16.3
2022-11-29T12:51:28.811Z,16.3
2022-11-29T12:56:31.132Z,16.3
2022-11-29T13:01:33.312Z,16.2
2022-11-29T13:06:35.419Z,16.2
2022-11-29T13:11:37.600Z,16.2
2022-11-29T13:16:39.726Z,16.2
2022-11-29T13:21:41.833Z,16.2
2022-11-29T13:26:43.992Z,16.1
2022-11-29T13:31:46.283Z,16.1
2022-11-29T13:36:48.511Z,16.1
2022-11-29T13:41:50.792Z,16.1
2022-11-29T13:46:52.944Z,16.1
2022-11-29T13:51:55.048Z,16.1
2022-11-29T13:56:57.206Z,16
2022-11-29T14:01:59.400Z,16
2022-11-29T14:07:01.460Z,16
2022-11-29T14:12:03.621Z,16
2022-11-29T14:17:05.728Z,16
2022-11-29T14:22:07.863Z,16
2022-11-29T14:27:10.308Z,16
2022-11-29T14:32:12.587Z,16
2022-11-29T14:37:14.883Z,15.9
2022-11-29T14:42:17.117Z,15.9
2022-11-29T14:47:19.259Z,15.9
2022-11-29T14:52:21.440Z,15.9
2022-11-29T14:57:23.596Z,15.9
2022-11-29T15:02:25.773Z,15.9
2022-11-29T15:07:27.847Z,15.8
2022-11-29T15:12:30.177Z,15.8
2022-11-29T15:17:32.304Z,15.8
2022-11-29T15:22:34.497Z,15.8
2022-11-29T15:27:40.102Z,15.8
2022-11-29T15:32:38.912Z,15.7
2022-11-29T15:37:41.210Z,15.7
2022-11-29T15:42:43.374Z,15.7
2022-11-29T15:47:45.480Z,15.7
2022-11-29T15:52:47.622Z,15.7
2022-11-29T15:57:49.782Z,15.7
2022-11-29T16:02:51.894Z,15.7
2022-11-29T16:07:54.035Z,15.8
2022-11-29T16:12:56.357Z,15.9
2022-11-29T16:17:58.557Z,15.9
2022-11-29T16:23:00.834Z,16
2022-11-29T16:28:03.008Z,16.2
2022-11-29T16:33:05.292Z,16.3
2022-11-29T16:38:07.520Z,16.4
2022-11-29T16:43:09.687Z,16.6
2022-11-29T16:48:11.801Z,16.7
2022-11-29T16:53:13.944Z,16.9
2022-11-29T16:58:16.288Z,17
2022-11-29T17:03:18.399Z,17.1
2022-11-29T17:08:20.713Z,17.2
2022-11-29T17:13:23.063Z,17.3
2022-11-29T17:18:25.198Z,17.4
2022-11-29T17:23:27.324Z,17.5
2022-11-29T17:28:29.561Z,17.5
2022-11-29T17:33:31.677Z,17.6
2022-11-29T17:38:33.919Z,17.6
2022-11-29T17:43:36.095Z,17.6
2022-11-29T17:48:38.199Z,17.6
2022-11-29T17:53:40.347Z,17.6
2022-11-29T17:58:42.613Z,17.6
2022-11-29T18:03:44.727Z,17.6
2022-11-29T18:08:46.981Z,17.6
2022-11-29T18:13:49.289Z,17.6
2022-11-29T18:18:51.573Z,17.6
2022-11-29T18:23:53.836Z,17.6
2022-11-29T18:28:56.005Z,17.6
2022-11-29T18:33:58.205Z,17.6
2022-11-29T18:39:00.358Z,17.6
2022-11-29T18:44:02.552Z,17.6
2022-11-29T18:49:04.647Z,17.6
2022-11-29T18:54:06.796Z,17.6
2022-11-29T18:59:09.137Z,17.6
2022-11-29T19:04:11.258Z,17.6
2022-11-29T19:09:13.565Z,17.6
2022-11-29T19:14:15.732Z,17.6
2022-11-29T19:19:17.892Z,17.6
2022-11-29T19:24:20.083Z,17.7
2022-11-29T19:29:22.381Z,17.7
2022-11-29T19:34:24.516Z,17.8
2022-11-29T19:39:26.650Z,17.9
2022-11-29T19:44:30.088Z,18
2022-11-29T19:49:30.914Z,18.1
2022-11-29T19:54:33.041Z,18.1
2022-11-29T19:59:35.282Z,18.2
2022-11-29T20:04:37.506Z,18.3
2022-11-29T20:09:39.655Z,18.3
2022-11-29T20:14:41.820Z,18.4
2022-11-29T20:19:44.217Z,18.4
2022-11-29T20:24:46.054Z,18.4
2022-11-29T20:29:48.642Z,18.4
2022-11-29T20:34:50.334Z,18.4
2022-11-29T20:39:52.633Z,18.4
2022-11-29T20:44:55.061Z,18.4
2022-11-29T20:49:57.373Z,18.4
2022-11-29T20:54:59.727Z,18.4
2022-11-29T21:00:01.909Z,18.4
2022-11-29T21:05:04.197Z,18.4
2022-11-29T21:10:06.269Z,18.3
2022-11-29T21:15:08.443Z,18.3
2022-11-29T21:20:10.563Z,18.3
2022-11-29T21:25:12.686Z,18.2
2022-11-29T21:30:14.860Z,18.2
2022-11-29T21:35:16.959Z,18.1
2022-11-29T21:40:19.094Z,18.1
2022-11-29T21:45:21.411Z,18.1
2022-11-29T21:50:23.757Z,18
2022-11-29T21:55:31.682Z,18
2022-11-29T22:00:30.075Z,18
2022-11-29T22:05:30.155Z,17.9
2022-11-29T22:10:32.285Z,17.9
2022-11-29T22:15:34.530Z,17.8
2022-11-29T22:20:36.655Z,17.8
2022-11-29T22:25:39.055Z,17.8
2022-11-29T22:30:41.445Z,17.7
2022-11-29T22:35:43.720Z,17.7
2022-11-29T22:40:45.873Z,17.7
2022-11-29T22:45:48.032Z,17.7
2022-11-29T22:50:50.149Z,17.7
2022-11-29T22:55:52.283Z,17.6
2022-11-29T23:00:54.644Z,17.6
2022-11-29T23:05:56.724Z,17.6
2022-11-29T23:10:58.845Z,17.5
2022-11-29T23:16:01.191Z,17.5
2022-11-29T23:21:03.534Z,17.4
2022-11-29T23:26:05.690Z,17.4
2022-11-29T23:31:07.853Z,17.4
2022-11-29T23:36:09.960Z,17.3
2022-11-29T23:41:12.086Z,17.3
2022-11-29T23:46:14.344Z,17.2
2022-11-29T23:51:16.332Z,17.2
2022-11-29T23:56:18.565Z,17.2
